createdAt,value
2023-04-25T00:00:21.190Z,68.20
2023-04-25T00:02:48.820Z,67.80
2023-04-25T00:05:17.321Z,67.80
2023-04-25T00:07:44.618Z,67.70
2023-04-25T00:10:12.710Z,67.50
2023-04-25T00:12:39.960Z,67.50
2023-04-25T00:15:07.636Z,67.40
2023-04-25T00:17:35.857Z,67.40
2023-04-25T00:20:06.080Z,67.50
2023-04-25T00:22:35.257Z,67.50
2023-04-25T00:25:02.903Z,67.50
2023-04-25T00:27:30.166Z,67.30
2023-04-25T00:29:57.083Z,67.30
2023-04-25T00:32:24.146Z,67.40
2023-04-25T00:34:51.314Z,67.50
2023-04-25T00:37:19.253Z,67.40
2023-04-25T00:39:46.340Z,67.40
2023-04-25T00:42:13.884Z,67.40
2023-04-25T00:44:40.967Z,67.40
2023-04-25T00:47:08.364Z,67.60
2023-04-25T00:49:35.304Z,67.60
2023-04-25T00:52:02.466Z,67.40
2023-04-25T00:54:29.528Z,67.40
2023-04-25T00:56:56.572Z,67.50
2023-04-25T00:59:23.696Z,67.60
2023-04-25T01:01:51.374Z,67.50
2023-04-25T01:04:18.838Z,67.40
2023-04-25T01:06:46.772Z,67.40
2023-04-25T01:09:14.221Z,67.30
2023-04-25T01:11:41.273Z,67.30
2023-04-25T01:14:08.559Z,67.20
2023-04-25T01:16:35.814Z,67.20
2023-04-25T01:19:13.433Z,67.30
2023-04-25T01:21:41.035Z,67.30
2023-04-25T01:24:08.896Z,67.20
2023-04-25T01:26:37.055Z,67.30
2023-04-25T01:29:06.118Z,67.20
2023-04-25T01:31:34.622Z,67.30
2023-04-25T01:34:01.954Z,67.30
2023-04-25T01:36:30.259Z,67.30
2023-04-25T01:38:58.000Z,67.30
2023-04-25T01:41:25.330Z,67.20
2023-04-25T01:43:52.636Z,67.20
2023-04-25T01:46:20.164Z,67.10
2023-04-25T01:48:47.736Z,67.10
2023-04-25T01:51:14.907Z,66.90
2023-04-25T01:53:42.417Z,66.90
2023-04-25T01:56:09.668Z,67.00
2023-04-25T01:58:37.154Z,67.00
2023-04-25T02:01:23.501Z,66.90
2023-04-25T02:04:07.726Z,66.70
2023-04-25T02:06:37.386Z,66.60
2023-04-25T02:09:04.400Z,66.60
2023-04-25T02:11:32.613Z,66.50
2023-04-25T02:14:25.424Z,66.40
2023-04-25T02:17:01.651Z,66.30
2023-04-25T02:19:31.062Z,66.30
2023-04-25T02:21:59.015Z,66.30
2023-04-25T02:24:26.232Z,66.00
2023-04-25T02:26:53.590Z,66.00
2023-04-25T02:29:20.742Z,66.00
2023-04-25T02:31:48.068Z,65.80
2023-04-25T02:34:15.446Z,66.60
2023-04-25T02:36:42.402Z,65.80
2023-04-25T02:39:09.257Z,65.70
2023-04-25T02:41:36.311Z,65.80
2023-04-25T02:44:03.199Z,65.60
2023-04-25T02:46:38.990Z,65.60
2023-04-25T02:49:07.587Z,65.50
2023-04-25T02:51:35.360Z,65.50
2023-04-25T02:54:02.395Z,65.50
2023-04-25T02:56:29.866Z,65.50
2023-04-25T02:58:57.606Z,65.50
2023-04-25T03:01:24.902Z,65.60
2023-04-25T03:03:52.639Z,65.60
2023-04-25T03:06:20.066Z,65.70
2023-04-25T03:08:47.088Z,65.70
2023-04-25T03:11:13.939Z,65.60
2023-04-25T03:13:42.475Z,65.70
2023-04-25T03:16:10.899Z,65.70
2023-04-25T03:18:38.068Z,65.70
2023-04-25T03:21:05.319Z,65.80
2023-04-25T03:23:32.528Z,65.80
2023-04-25T03:25:59.580Z,65.80
2023-04-25T03:28:26.767Z,66.00
2023-04-25T03:30:55.322Z,65.90
2023-04-25T03:33:23.016Z,65.90
2023-04-25T03:35:50.828Z,66.00
2023-04-25T03:38:18.547Z,66.10
2023-04-25T03:40:46.052Z,66.20
2023-04-25T03:43:20.730Z,66.20
2023-04-25T03:45:53.605Z,66.30
2023-04-25T03:48:23.652Z,66.40
2023-04-25T03:50:51.192Z,66.30
2023-04-25T03:53:18.188Z,66.30
2023-04-25T03:56:17.238Z,66.40
2023-04-25T03:58:46.701Z,66.40
2023-04-25T04:01:15.675Z,66.30
2023-04-25T04:03:43.194Z,66.30
2023-04-25T04:06:11.629Z,66.40
2023-04-25T04:08:43.972Z,66.40
2023-04-25T04:11:11.995Z,66.60
2023-04-25T04:13:39.262Z,66.50
2023-04-25T04:16:07.484Z,66.50
2023-04-25T04:18:34.884Z,66.50
2023-04-25T04:21:02.746Z,66.50
2023-04-25T04:23:32.560Z,66.60
2023-04-25T04:26:01.040Z,66.60
2023-04-25T04:28:41.785Z,66.60
2023-04-25T04:31:38.228Z,66.40
2023-04-25T04:34:06.214Z,66.50
2023-04-25T04:36:34.811Z,66.50
2023-04-25T04:39:03.249Z,66.60
2023-04-25T04:41:37.697Z,66.70
2023-04-25T04:44:23.776Z,67.00
2023-04-25T04:47:15.222Z,66.90
2023-04-25T04:50:01.291Z,66.70
2023-04-25T04:52:51.845Z,66.90
2023-04-25T04:55:42.034Z,66.70
2023-04-25T04:58:22.893Z,66.70
2023-04-25T05:01:17.036Z,66.70
2023-04-25T05:04:02.383Z,66.90
2023-04-25T05:06:49.093Z,66.70
2023-04-25T05:09:39.376Z,66.60
2023-04-25T05:12:25.047Z,66.60
2023-04-25T05:15:27.150Z,66.70
2023-04-25T05:18:12.853Z,66.50
2023-04-25T05:21:06.414Z,66.60
2023-04-25T05:23:48.835Z,66.70
2023-04-25T05:26:34.916Z,66.80
2023-04-25T05:29:13.063Z,66.60
2023-04-25T05:31:54.067Z,66.60
2023-04-25T05:34:21.088Z,66.60
2023-04-25T05:37:02.959Z,66.60
2023-04-25T05:39:31.212Z,66.70
2023-04-25T05:42:28.565Z,66.60
2023-04-25T05:44:58.459Z,66.60
2023-04-25T05:47:37.047Z,66.70
2023-04-25T05:50:12.132Z,66.80
2023-04-25T05:52:49.492Z,66.70
2023-04-25T05:55:25.680Z,66.70
2023-04-25T05:57:53.653Z,66.70
2023-04-25T06:00:22.872Z,66.80
2023-04-25T06:02:50.732Z,66.90
2023-04-25T06:05:19.061Z,67.00
2023-04-25T06:07:47.914Z,67.10
2023-04-25T06:10:16.040Z,67.20
2023-04-25T06:12:43.564Z,67.20
2023-04-25T06:15:26.630Z,66.90
2023-04-25T06:17:56.123Z,66.70
2023-04-25T06:20:25.619Z,66.60
2023-04-25T06:22:54.653Z,66.60
2023-04-25T06:25:27.617Z,66.70
2023-04-25T06:27:55.489Z,66.50
2023-04-25T06:30:26.589Z,66.60
2023-04-25T06:32:57.789Z,66.70
2023-04-25T06:35:25.322Z,66.90
2023-04-25T06:37:52.278Z,67.10
2023-04-25T06:40:22.318Z,67.10
2023-04-25T06:42:49.325Z,67.30
2023-04-25T06:45:36.594Z,67.20
2023-04-25T06:48:04.561Z,67.30
2023-04-25T06:50:31.772Z,67.40
2023-04-25T06:52:58.758Z,67.40
2023-04-25T06:55:26.117Z,67.90
2023-04-25T06:58:11.674Z,67.10
2023-04-25T07:00:50.664Z,66.90
2023-04-25T07:03:19.905Z,66.60
2023-04-25T07:05:47.582Z,66.40
2023-04-25T07:08:14.516Z,66.20
2023-04-25T07:10:42.305Z,66.20
2023-04-25T07:13:09.340Z,66.20
2023-04-25T07:15:36.973Z,66.30
2023-04-25T07:18:04.085Z,66.60
2023-04-25T07:20:33.832Z,66.30
2023-04-25T07:23:01.551Z,66.20
2023-04-25T07:25:28.947Z,66.20
2023-04-25T07:27:56.612Z,66.30
2023-04-25T07:30:23.772Z,66.30
2023-04-25T07:32:51.654Z,66.20
2023-04-25T07:35:18.912Z,66.20
2023-04-25T07:37:46.342Z,66.20
2023-04-25T07:40:17.528Z,66.10
2023-04-25T07:42:48.743Z,66.20
2023-04-25T07:45:19.894Z,66.20
2023-04-25T07:47:47.493Z,66.30
2023-04-25T07:50:14.485Z,66.30
2023-04-25T07:52:41.611Z,66.30
2023-04-25T07:55:24.222Z,66.10
2023-04-25T07:58:00.311Z,66.20
2023-04-25T08:00:30.321Z,66.30
2023-04-25T08:03:17.457Z,65.90
2023-04-25T08:05:45.445Z,65.40
2023-04-25T08:08:13.624Z,65.00
2023-04-25T08:10:41.921Z,64.90
2023-04-25T08:13:09.631Z,64.50
2023-04-25T08:15:37.503Z,64.00
2023-04-25T08:18:04.916Z,63.70
2023-04-25T08:20:32.856Z,63.00
2023-04-25T08:23:01.999Z,62.70
2023-04-25T08:26:01.346Z,62.40
2023-04-25T08:28:30.195Z,61.80
2023-04-25T08:30:59.780Z,61.00
2023-04-25T08:33:33.772Z,61.10
2023-04-25T08:36:08.329Z,60.70
2023-04-25T08:41:07.821Z,59.60
2023-04-25T08:43:36.732Z,59.60
2023-04-25T08:46:04.725Z,59.80
2023-04-25T08:48:42.298Z,59.80
2023-04-25T08:51:11.617Z,59.70
2023-04-25T08:53:43.833Z,59.10
2023-04-25T08:56:14.301Z,57.80
2023-04-25T08:58:41.881Z,56.50
2023-04-25T09:01:09.321Z,55.50
2023-04-25T09:03:46.006Z,54.80
2023-04-25T09:06:13.913Z,54.30
2023-04-25T09:08:41.561Z,53.60
2023-04-25T09:11:09.124Z,53.20
2023-04-25T09:13:36.408Z,52.70
2023-04-25T09:16:26.647Z,52.30
2023-04-25T09:19:40.909Z,52.10
2023-04-25T09:22:29.365Z,51.10
2023-04-25T09:24:56.794Z,51.00
2023-04-25T09:27:27.957Z,50.70
2023-04-25T09:30:18.811Z,50.10
2023-04-25T09:33:11.180Z,48.60
2023-04-25T09:35:45.097Z,46.80
2023-04-25T09:38:20.046Z,45.70
2023-04-25T09:41:11.588Z,44.70
2023-04-25T09:43:47.835Z,44.50
2023-04-25T09:46:16.646Z,43.10
2023-04-25T09:48:54.615Z,41.90
2023-04-25T09:51:36.366Z,39.90
2023-04-25T09:54:05.324Z,39.30
2023-04-25T09:56:38.988Z,38.50
2023-04-25T09:59:10.076Z,37.30
2023-04-25T10:01:40.722Z,34.70
2023-04-25T10:04:30.649Z,33.20
2023-04-25T10:07:08.394Z,32.50
2023-04-25T10:09:40.996Z,31.80
2023-04-25T10:12:09.172Z,31.90
2023-04-25T10:14:36.953Z,32.20
2023-04-25T10:17:04.076Z,31.80
2023-04-25T10:19:31.383Z,32.40
2023-04-25T10:22:32.219Z,32.60
2023-04-25T10:24:59.742Z,33.20
2023-04-25T10:27:29.424Z,33.80
2023-04-25T10:30:17.404Z,33.70
2023-04-25T10:32:46.849Z,33.10
2023-04-25T10:35:17.267Z,33.50
2023-04-25T10:37:59.673Z,33.30
2023-04-25T10:40:27.201Z,32.00
2023-04-25T10:42:57.664Z,32.00
2023-04-25T10:45:24.845Z,32.00
2023-04-25T10:47:52.036Z,32.00
2023-04-25T10:50:19.165Z,32.30
2023-04-25T10:52:46.317Z,32.60
2023-04-25T10:55:13.598Z,32.80
2023-04-25T10:57:50.721Z,32.90
2023-04-25T11:00:20.573Z,33.10
2023-04-25T11:02:49.827Z,33.30
2023-04-25T11:05:43.770Z,33.80
2023-04-25T11:08:15.229Z,34.00
2023-04-25T11:10:42.830Z,34.50
2023-04-25T11:13:10.262Z,34.70
2023-04-25T11:15:38.573Z,34.80
2023-04-25T11:18:06.254Z,34.90
2023-04-25T11:20:33.497Z,35.30
2023-04-25T11:23:01.124Z,35.40
2023-04-25T11:25:29.126Z,36.20
2023-04-25T11:27:58.898Z,35.30
2023-04-25T11:30:28.092Z,35.40
2023-04-25T11:32:55.253Z,35.20
2023-04-25T11:35:24.413Z,35.40
2023-04-25T11:37:51.778Z,35.70
2023-04-25T11:40:18.968Z,35.90
2023-04-25T11:42:48.383Z,36.10
2023-04-25T11:45:16.247Z,36.20
2023-04-25T11:47:43.545Z,36.50
2023-04-25T11:50:11.351Z,36.70
2023-04-25T11:52:48.898Z,36.80
2023-04-25T11:55:20.947Z,36.70
2023-04-25T11:57:51.373Z,36.60
2023-04-25T12:00:22.722Z,36.80
2023-04-25T12:02:55.948Z,36.50
2023-04-25T12:05:32.794Z,36.10
2023-04-25T12:08:17.495Z,35.90
2023-04-25T12:10:46.907Z,35.80
2023-04-25T12:13:29.287Z,35.90
2023-04-25T12:15:59.297Z,35.90
2023-04-25T12:18:29.594Z,36.10
2023-04-25T12:20:57.093Z,36.00
2023-04-25T12:23:29.373Z,36.80
2023-04-25T12:25:57.465Z,36.00
2023-04-25T12:28:28.493Z,36.20
2023-04-25T12:31:07.403Z,36.30
2023-04-25T12:33:37.835Z,36.30
2023-04-25T12:36:10.355Z,36.40
2023-04-25T12:38:42.793Z,36.70
2023-04-25T12:41:10.250Z,36.40
2023-04-25T12:43:37.410Z,35.90
2023-04-25T12:46:09.206Z,35.30
2023-04-25T12:48:39.650Z,34.90
2023-04-25T12:51:08.055Z,34.90
2023-04-25T12:53:39.254Z,35.40
2023-04-25T12:56:09.146Z,34.80
2023-04-25T12:58:37.480Z,34.60
2023-04-25T13:01:06.824Z,34.50
2023-04-25T13:03:35.844Z,33.90
2023-04-25T13:06:03.275Z,33.10
2023-04-25T13:08:31.527Z,32.30
2023-04-25T13:10:58.582Z,31.90
2023-04-25T13:13:29.920Z,31.60
2023-04-25T13:15:57.088Z,31.50
2023-04-25T13:18:27.587Z,31.20
2023-04-25T13:20:55.204Z,30.70
2023-04-25T13:23:22.912Z,31.00
2023-04-25T13:25:50.198Z,31.40
2023-04-25T13:28:17.396Z,31.80
2023-04-25T13:30:45.251Z,32.20
2023-04-25T13:33:13.392Z,31.90
2023-04-25T13:35:43.236Z,31.70
2023-04-25T13:38:10.234Z,31.60
2023-04-25T13:40:37.747Z,31.00
2023-04-25T13:43:04.929Z,30.30
2023-04-25T13:45:33.428Z,29.20
2023-04-25T13:48:01.611Z,28.50
2023-04-25T13:50:28.989Z,28.50
2023-04-25T13:52:56.048Z,28.10
2023-04-25T13:55:23.095Z,28.00
2023-04-25T13:57:50.337Z,28.10
2023-04-25T14:00:17.808Z,28.00
2023-04-25T14:02:44.869Z,28.20
2023-04-25T14:05:11.965Z,28.40
2023-04-25T14:07:39.181Z,28.60
2023-04-25T14:10:06.921Z,28.80
2023-04-25T14:12:34.386Z,28.90
2023-04-25T14:15:01.555Z,29.10
2023-04-25T14:17:28.685Z,29.30
2023-04-25T14:19:56.011Z,29.50
2023-04-25T14:22:23.389Z,29.50
2023-04-25T14:24:50.318Z,29.80
2023-04-25T14:27:17.377Z,30.00
2023-04-25T14:29:44.735Z,30.00
2023-04-25T14:32:12.035Z,30.00
2023-04-25T14:34:39.526Z,30.40
2023-04-25T14:37:06.598Z,30.60
2023-04-25T14:39:33.596Z,30.80
2023-04-25T14:42:00.855Z,31.30
2023-04-25T14:44:27.907Z,31.70
2023-04-25T14:46:54.871Z,32.20
2023-04-25T14:49:22.011Z,32.60
2023-04-25T14:51:50.757Z,32.90
2023-04-25T14:54:19.185Z,33.20
2023-04-25T14:56:46.064Z,33.70
2023-04-25T14:59:13.118Z,34.20
2023-04-25T15:01:41.270Z,34.70
2023-04-25T15:04:08.627Z,34.70
2023-04-25T15:06:35.919Z,34.60
2023-04-25T15:09:02.906Z,34.60
2023-04-25T15:11:30.358Z,34.70
2023-04-25T15:13:57.862Z,34.90
2023-04-25T15:16:24.949Z,34.80
2023-04-25T15:18:51.871Z,35.00
2023-04-25T15:21:19.004Z,35.10
2023-04-25T15:23:46.436Z,35.30
2023-04-25T15:26:13.834Z,35.40
2023-04-25T15:28:41.143Z,35.70
2023-04-25T15:31:08.668Z,35.90
2023-04-25T15:33:35.608Z,36.10
2023-04-25T15:36:04.566Z,36.30
2023-04-25T15:38:31.634Z,36.60
2023-04-25T15:40:58.557Z,36.80
2023-04-25T15:43:25.589Z,37.10
2023-04-25T15:45:52.513Z,37.50
2023-04-25T15:48:20.115Z,37.50
2023-04-25T15:50:47.720Z,36.80
2023-04-25T15:53:15.274Z,36.50
2023-04-25T15:55:44.827Z,36.40
2023-04-25T15:58:13.222Z,36.60
2023-04-25T16:00:42.195Z,36.70
2023-04-25T16:03:10.404Z,36.30
2023-04-25T16:05:40.557Z,36.10
2023-04-25T16:08:10.260Z,35.80
2023-04-25T16:10:39.254Z,35.60
2023-04-25T16:13:08.819Z,35.30
2023-04-25T16:15:37.563Z,35.10
2023-04-25T16:18:06.157Z,35.10
2023-04-25T16:20:34.845Z,35.20
2023-04-25T16:23:04.164Z,35.30
2023-04-25T16:25:32.763Z,35.40
2023-04-25T16:28:01.391Z,35.50
2023-04-25T16:30:28.491Z,35.50
2023-04-25T16:32:57.368Z,35.20
2023-04-25T16:35:25.548Z,35.10
2023-04-25T16:37:52.966Z,34.90
2023-04-25T16:40:20.895Z,34.70
2023-04-25T16:42:47.868Z,34.60
2023-04-25T16:45:16.792Z,34.40
2023-04-25T16:47:44.091Z,34.40
2023-04-25T16:50:11.623Z,34.50
2023-04-25T16:52:38.576Z,34.70
2023-04-25T16:55:08.001Z,34.90
2023-04-25T16:57:37.551Z,35.10
2023-04-25T17:00:06.812Z,35.30
2023-04-25T17:02:34.091Z,35.60
2023-04-25T17:05:03.522Z,36.00
2023-04-25T17:07:31.624Z,36.10
2023-04-25T17:10:02.131Z,36.40
2023-04-25T17:12:31.449Z,36.70
2023-04-25T17:15:01.231Z,37.40
2023-04-25T17:17:29.353Z,37.20
2023-04-25T17:19:57.519Z,37.40
2023-04-25T17:22:28.952Z,37.60
2023-04-25T17:24:57.712Z,37.80
2023-04-25T17:27:27.295Z,37.90
2023-04-25T17:29:56.567Z,38.10
2023-04-25T17:32:28.528Z,38.30
2023-04-25T17:34:57.707Z,38.40
2023-04-25T17:37:29.297Z,38.60
2023-04-25T17:39:58.279Z,39.30
2023-04-25T17:42:27.516Z,39.00
2023-04-25T17:44:57.136Z,39.20
2023-04-25T17:47:26.333Z,39.50
2023-04-25T17:49:55.326Z,39.50
2023-04-25T17:52:25.740Z,39.70
2023-04-25T17:54:54.417Z,39.90
2023-04-25T17:57:25.668Z,40.10
2023-04-25T17:59:57.136Z,40.40
2023-04-25T18:02:26.430Z,40.60
2023-04-25T18:04:55.388Z,40.90
2023-04-25T18:07:25.212Z,41.70
2023-04-25T18:09:54.007Z,41.50
2023-04-25T18:12:22.925Z,41.60
2023-04-25T18:14:53.887Z,41.70
2023-04-25T18:17:25.740Z,42.10
2023-04-25T18:19:55.427Z,42.30
2023-04-25T18:22:24.158Z,42.70
2023-04-25T18:24:53.190Z,42.90
2023-04-25T18:27:23.056Z,43.30
2023-04-25T18:30:13.115Z,43.30
2023-04-25T18:32:42.513Z,44.00
2023-04-25T18:35:13.256Z,43.70
2023-04-25T18:37:42.443Z,43.90
2023-04-25T18:40:15.931Z,44.10
2023-04-25T18:42:43.888Z,44.40
2023-04-25T18:45:11.811Z,45.30
2023-04-25T18:47:39.013Z,45.80
2023-04-25T18:50:08.329Z,46.20
2023-04-25T18:52:35.779Z,46.60
2023-04-25T18:55:02.858Z,46.50
2023-04-25T18:57:30.151Z,46.90
2023-04-25T18:59:57.132Z,47.10
2023-04-25T19:02:24.360Z,47.30
2023-04-25T19:04:51.341Z,47.40
2023-04-25T19:07:20.713Z,47.70
2023-04-25T19:09:47.755Z,47.90
2023-04-25T19:12:14.882Z,48.40
2023-04-25T19:14:42.770Z,48.30
2023-04-25T19:17:09.878Z,48.50
2023-04-25T19:19:36.858Z,48.30
2023-04-25T19:22:04.220Z,48.00
2023-04-25T19:24:33.932Z,48.00
2023-04-25T19:27:02.792Z,47.90
2023-04-25T19:29:30.184Z,47.80
2023-04-25T19:31:59.422Z,47.60
2023-04-25T19:34:27.141Z,47.50
2023-04-25T19:36:54.165Z,47.30
2023-04-25T19:39:22.523Z,47.10
2023-04-25T19:41:49.587Z,47.10
2023-04-25T19:44:16.668Z,46.80
2023-04-25T19:46:46.451Z,46.30
2023-04-25T19:49:13.454Z,46.10
2023-04-25T19:51:40.789Z,46.00
2023-04-25T19:54:08.704Z,45.90
2023-04-25T19:56:35.659Z,45.90
2023-04-25T19:59:02.969Z,45.90
2023-04-25T20:01:30.610Z,46.00
2023-04-25T20:03:57.718Z,46.00
2023-04-25T20:06:24.920Z,46.10
2023-04-25T20:08:54.973Z,46.20
2023-04-25T20:11:22.365Z,46.40
2023-04-25T20:13:49.765Z,46.40
2023-04-25T20:16:19.947Z,46.70
2023-04-25T20:18:48.738Z,46.90
2023-04-25T20:21:16.828Z,47.10
2023-04-25T20:23:44.067Z,47.40
2023-04-25T20:26:12.869Z,47.60
2023-04-25T20:28:41.646Z,47.80
2023-04-25T20:31:10.902Z,48.70
2023-04-25T20:33:38.666Z,48.50
2023-04-25T20:36:05.734Z,48.60
2023-04-25T20:38:32.843Z,48.70
2023-04-25T20:41:00.428Z,48.80
2023-04-25T20:43:27.611Z,49.10
2023-04-25T20:45:54.854Z,49.30
2023-04-25T20:48:22.338Z,49.10
2023-04-25T20:50:49.227Z,49.60
2023-04-25T20:53:16.746Z,49.70
2023-04-25T20:55:44.173Z,49.80
2023-04-25T20:58:11.329Z,49.90
2023-04-25T21:00:38.889Z,50.00
2023-04-25T21:03:07.118Z,50.20
2023-04-25T21:05:34.248Z,50.40
2023-04-25T21:08:01.488Z,50.30
2023-04-25T21:10:28.640Z,50.60
2023-04-25T21:12:56.598Z,50.70
2023-04-25T21:15:24.818Z,50.70
2023-04-25T21:17:52.488Z,51.00
2023-04-25T21:20:21.811Z,50.90
2023-04-25T21:22:52.971Z,51.10
2023-04-25T21:25:30.847Z,51.00
2023-04-25T21:27:59.305Z,50.80
2023-04-25T21:30:26.928Z,50.50
2023-04-25T21:32:54.271Z,50.20
2023-04-25T21:35:22.924Z,50.10
2023-04-25T21:37:51.006Z,50.00
2023-04-25T21:40:18.337Z,50.00
2023-04-25T21:42:49.922Z,50.00
2023-04-25T21:45:17.389Z,50.10
2023-04-25T21:47:46.899Z,50.00
2023-04-25T21:50:14.985Z,50.10
2023-04-25T21:52:42.019Z,50.10
2023-04-25T21:55:10.553Z,50.30
2023-04-25T21:57:37.475Z,50.40
2023-04-25T22:00:20.818Z,50.60
2023-04-25T22:02:48.952Z,50.70
2023-04-25T22:05:23.332Z,50.70
2023-04-25T22:07:51.607Z,50.80
2023-04-25T22:10:20.604Z,51.00
2023-04-25T22:12:50.974Z,51.10
2023-04-25T22:15:19.547Z,51.40
2023-04-25T22:17:47.411Z,51.30
2023-04-25T22:20:15.728Z,51.40
2023-04-25T22:22:44.484Z,51.70
2023-04-25T22:25:14.545Z,51.70
2023-04-25T22:27:43.777Z,51.80
2023-04-25T22:30:14.689Z,51.80
2023-04-25T22:32:43.601Z,51.90
2023-04-25T22:35:11.896Z,52.20
2023-04-25T22:37:39.082Z,52.30
2023-04-25T22:40:07.589Z,52.50
2023-04-25T22:42:42.325Z,52.60
2023-04-25T22:45:11.244Z,52.70
2023-04-25T22:47:39.198Z,52.80
2023-04-25T22:50:13.072Z,52.90
2023-04-25T22:52:42.385Z,53.00
2023-04-25T22:55:11.079Z,53.20
2023-04-25T22:57:40.856Z,53.50
2023-04-25T23:00:19.812Z,53.50
2023-04-25T23:02:47.461Z,53.70
2023-04-25T23:05:15.596Z,53.90
2023-04-25T23:07:44.703Z,53.90
2023-04-25T23:10:12.193Z,53.90
2023-04-25T23:12:40.230Z,54.10
2023-04-25T23:15:08.696Z,54.20
2023-04-25T23:17:36.901Z,54.30
2023-04-25T23:20:07.568Z,54.50
2023-04-25T23:22:35.274Z,54.50
2023-04-25T23:25:02.654Z,54.60
2023-04-25T23:27:29.621Z,54.90
2023-04-25T23:29:58.053Z,54.80
2023-04-25T23:32:26.570Z,55.10
2023-04-25T23:34:53.731Z,55.30
2023-04-25T23:37:20.956Z,55.30
2023-04-25T23:39:50.878Z,55.50
2023-04-25T23:42:19.102Z,55.90
2023-04-25T23:44:46.339Z,56.30
2023-04-25T23:47:17.368Z,56.20
2023-04-25T23:49:45.686Z,56.30
2023-04-25T23:52:13.066Z,56.30
2023-04-25T23:54:40.074Z,56.50
2023-04-25T23:57:07.129Z,56.80
2023-04-25T23:59:34.458Z,56.90
